Terminal Aerodrome Forecast
Issued by NWS

Home | Current Version | Previous Version | Graphics & Text | Print | Product List | Glossary On
Versions: 1 2 3 4 5 6 7 8 9 10 11 12 13 14 15 16 17
157
FTUS43 KBIS 040752 AAA
TAFJMS
TAF AMD
KJMS 040752Z 0408/0506 33011KT P6SM VCSH OVC020
     FM042100 24006KT P6SM BKN130=

USA.gov is the U.S. government's official web portal to all federal, state and local government web resources and services.